• Join FlightAware (Why Join?)
  • Login
  • US Flag 
10:45AM EDT


 

Airport Tracker/Info


-or-


 

Live Flight TrackerFlight Track Log ✈ UAL822 ✈ 30-Apr-2013 ✈ KDFW - KORD

Flight Track Log - Related Links

Times and Time Zones

All times are in EDT time to prevent confusion due to time zone crossing. See the UAL822 flight status page for this flight to view local times or setup timezone preferences in your user account.

Time Position Orientation Groundspeed Altitude Reporting Facility
EDT Latitude Longitude Course Direction KTS MPH feet Rate Location/Type
04:08PM 32.8667 -97.0333 348° North 172 198 1,500  Level Dallas / Fort Worth TRACON
04:08PM 32.8333 -97.0167 157° South 214 246 3,100 2,460 Climbing Dallas / Fort Worth TRACON
04:09PM 32.7833 -96.9833 151° Southeast 268 308 6,000 3,300 Climbing Dallas / Fort Worth TRACON
04:10PM 32.7667 -96.8833 101° East 275 316 9,800 2,520 Climbing Dallas / Fort Worth TRACON
04:11PM 32.9241 -96.8000 North  Level FlightAware Approximate
04:12PM 33.0274 -96.8220 337° Northwest  Level FlightAware Approximate
04:12PM 32.8717 -96.8122 30° Northeast 298 343 13,000  Level Fort Worth Center
04:13PM 33.1307 -96.8535 348° North  Level FlightAware Approximate
04:13PM 32.9864 -96.8142 359° North 332 382 15,800  Level Fort Worth Center
04:14PM 33.0783 -96.8408 346° North 385 443 18,300 2,520 Climbing Fort Worth Center
04:15PM 33.1975 -96.8797 345° North 385 443 20,900 2,220 Climbing Fort Worth Center
04:16PM 33.2958 -96.9114 345° North 396 456 22,800 1,920 Climbing Fort Worth Center
04:17PM 33.4233 -96.9531 345° North 416 479 24,800 1,680 Climbing Fort Worth Center
04:18PM 33.5297 -96.9300 10° North 411 473 26,200 1,500 Climbing Fort Worth Center
04:19PM 33.6608 -96.8819 17° North 435 501 27,800 1,440 Climbing Fort Worth Center
04:20PM 33.7817 -96.8336 18° North 447 514 29,100 1,380 Climbing Fort Worth Center
04:21PM 33.8983 -96.7878 18° North 449 517 30,600 1,560 Climbing Fort Worth Center
04:22PM 34.0214 -96.7369 19° North 454 522 32,300 1,200 Climbing Fort Worth Center
04:23PM 34.1461 -96.6883 18° North 459 528 33,000 300 Climbing Fort Worth Center
04:24PM 34.2650 -96.6419 18° North 459 528 33,000  Level Fort Worth Center
04:25PM 34.3833 -96.5856 21° North 459 528 33,000  Level Fort Worth Center
04:26PM 34.5000 -96.5239 24° Northeast 454 522 33,000  Level Fort Worth Center
04:27PM 34.6142 -96.4597 25° Northeast 454 522 33,000  Level Fort Worth Center
04:28PM 34.7306 -96.3953 24° Northeast 454 522 33,000  Level Fort Worth Center
04:29PM 34.8489 -96.3331 23° Northeast 459 528 33,000  Level Fort Worth Center
04:30PM 34.9631 -96.2708 24° Northeast 454 522 33,000  Level Fort Worth Center
04:31PM 35.0772 -96.2086 24° Northeast 454 522 33,000  Level Fort Worth Center
04:32PM 35.1914 -96.1458 24° Northeast 449 517 33,000  Level Fort Worth Center
04:33PM 35.3053 -96.0806 25° Northeast 444 511 33,100 780 Climbing Fort Worth Center
04:34PM 35.4172 -96.0178 25° Northeast 444 511 34,600 900 Climbing Fort Worth Center
04:35PM 35.5292 -95.9572 24° Northeast 438 504 35,000 180 Climbing Fort Worth Center
04:36PM 35.6389 -95.8914 26° Northeast 438 504 35,000 240 Level Fort Worth Center
04:37PM 35.7364 -95.8075 35° Northeast 434 499 35,500 480 Climbing Kansas City Center
04:38PM 35.8044 -95.6850 56° Northeast 434 499 36,000 240 Climbing Kansas City Center
04:39PM 35.8694 -95.5614 57° Northeast 432 497 36,100 480 Climbing Kansas City Center
04:40PM 35.9497 -95.4519 48° Northeast 435 501 37,000 420 Climbing Kansas City Center
04:41PM 36.0417 -95.3528 41° Northeast 441 507 37,000  Level Kansas City Center
04:42PM 36.1461 -95.2403 41° Northeast 434 499 37,000  Level Kansas City Center
04:43PM 36.2506 -95.1650 30° Northeast 435 501 37,000  Level Kansas City Center
04:44PM 36.3550 -95.0867 31° Northeast 433 498 37,000  Level Kansas City Center
04:45PM 36.4569 -95.0111 31° Northeast 431 496 37,000  Level Kansas City Center
04:47PM 36.5578 -94.9344 31° Northeast 428 493 37,000  Level Kansas City Center
04:48PM 36.6786 -94.8422 31° Northeast 427 491 37,000  Level Kansas City Center
04:49PM 36.7789 -94.7647 32° Northeast 426 490 37,000  Level Kansas City Center
04:50PM 36.8669 -94.6628 43° Northeast 431 496 37,000  Level Kansas City Center
04:51PM 36.9531 -94.5586 44° Northeast 431 496 37,000  Level Kansas City Center
04:52PM 37.0406 -94.4550 43° Northeast 432 497 37,000  Level Kansas City Center
04:53PM 37.1278 -94.3500 44° Northeast 434 499 37,000  Level Kansas City Center
04:54PM 37.2311 -94.2244 44° Northeast 432 497 37,000  Level Kansas City Center
04:55PM 37.3178 -94.1208 44° Northeast 430 495 37,000  Level Kansas City Center
04:56PM 37.3994 -94.0233 43° Northeast 431 496 37,000  Level Kansas City Center
04:57PM 37.4853 -93.9183 44° Northeast 430 495 37,000  Level Kansas City Center
04:58PM 37.5728 -93.8111 44° Northeast 434 499 37,000  Level Kansas City Center
04:59PM 37.6781 -93.6844 44° Northeast 434 499 37,000  Level Kansas City Center
05:00PM 37.7650 -93.5769 44° Northeast 435 501 37,000  Level Kansas City Center
05:01PM 37.8525 -93.4697 44° Northeast 435 501 37,000  Level Kansas City Center
05:02PM 37.9386 -93.3622 45° Northeast 434 499 37,000  Level Kansas City Center
05:03PM 38.0258 -93.2531 45° Northeast 436 502 37,000  Level Kansas City Center
05:04PM 38.1139 -93.1442 44° Northeast 438 504 37,000  Level Kansas City Center
05:05PM 38.2014 -93.0339 45° Northeast 439 505 37,000  Level Kansas City Center
05:06PM 38.3053 -92.9039 44° Northeast 436 502 37,000  Level Kansas City Center
05:07PM 38.3936 -92.7933 44° Northeast 438 504 37,000  Level Kansas City Center
05:08PM 38.4817 -92.6814 45° Northeast 441 507 37,000  Level Kansas City Center
05:09PM 38.5694 -92.5697 45° Northeast 442 509 37,000  Level Kansas City Center
05:10PM 38.6569 -92.4600 44° Northeast 439 505 37,000  Level Kansas City Center
05:11PM 38.7436 -92.3450 46° Northeast 443 510 37,000  Level Kansas City Center
05:12PM 38.8303 -92.2339 45° Northeast 440 506 37,000  Level Kansas City Center
05:13PM 38.9178 -92.1197 45° Northeast 443 510 37,000  Level Kansas City Center
05:14PM 39.0228 -91.9858 45° Northeast 443 510 37,000  Level Kansas City Center
05:15PM 39.1114 -91.8744 44° Northeast 442 509 37,000  Level Kansas City Center
05:17PM 39.1989 -91.7594 46° Northeast 444 511 37,000  Level Kansas City Center
05:18PM 39.2867 -91.6397 47° Northeast 451 519 37,000  Level Kansas City Center
05:19PM 39.3772 -91.5228 45° Northeast 456 525 37,000  Level Kansas City Center
05:20PM 39.4661 -91.4050 46° Northeast 456 525 37,000  Level Kansas City Center
05:21PM 39.5539 -91.2883 46° Northeast 454 522 37,000  Level Kansas City Center
05:22PM 39.6425 -91.1717 45° Northeast 454 522 37,000  Level Kansas City Center
05:23PM 39.7531 -91.0378 43° Northeast 448 516 37,000  Level Kansas City Center
05:24PM 39.8489 -90.9417 38° Northeast 449 517 37,000  Level Kansas City Center
05:25PM 39.9486 -90.8408 38° Northeast 453 521 37,000 -180 Level Kansas City Center
05:26PM 40.0486 -90.7394 38° Northeast 455 524 36,700 -660 Descending Kansas City Center
05:27PM 40.1453 -90.6392 38° Northeast 447 514 35,700 -1,800 Descending Kansas City Center
05:27PM 40.2256 -90.5594 37° Northeast 450 518 33,700 -1,620 Descending Chicago Center
05:29PM 40.3275 -90.4561 38° Northeast 461 531 33,000 -360 Descending Chicago Center
05:30PM 40.4294 -90.3511 38° Northeast 464 534 33,000 -240 Level Chicago Center
05:31PM 40.5308 -90.2464 38° Northeast 463 533 32,600 -840 Descending Chicago Center
05:32PM 40.6314 -90.1433 38° Northeast 469 540 31,300 -1,200 Descending Chicago Center
05:33PM 40.7553 -90.0167 38° Northeast 470 541 30,200 -1,020 Descending Chicago Center
05:34PM 40.8578 -89.9089 38° Northeast 473 544 29,200 -1,020 Descending Chicago Center
05:35PM 40.9597 -89.8000 39° Northeast 472 543 28,200 -1,080 Descending Chicago Center
05:36PM 41.0686 -89.6728 41° Northeast 475 547 27,000 -1,020 Descending Chicago Center
05:37PM 41.1372 -89.5283 58° Northeast 461 531 26,100 -1,380 Descending Chicago Center
05:38PM 41.2044 -89.3853 58° Northeast 455 524 24,200 -2,160 Descending Chicago Center
05:39PM 41.2686 -89.2450 59° Northeast 447 514 21,600 -2,520 Descending Chicago Center
05:40PM 41.3314 -89.1072 59° Northeast 421 484 19,000 -2,580 Descending Chicago Center
05:41PM 41.3906 -88.9781 59° Northeast 414 476 16,300 -2,520 Descending Chicago Center
05:42PM 41.4478 -88.8519 59° Northeast 403 464 13,800 -2,520 Descending Chicago Center
05:43PM 41.5144 -88.7017 59° Northeast 395 455 11,100 -1,380 Descending Chicago Center
05:44PM 41.5656 -88.5733 62° Northeast 392 451 11,000 -120 Descending Chicago Center
05:45PM 41.6197 -88.4467 60° Northeast 393 452 10,900 -420 Descending Chicago Center
05:46PM 41.6836 -88.3397 51° Northeast 370 426 10,200 -840 Descending Chicago Center
05:47PM 41.7383 -88.2436 53° Northeast 330 380 9,200 -900 Descending Chicago Center
05:48PM 41.7956 -88.1481 51° Northeast 327 376 8,400 -660 Descending Chicago Center
05:49PM 41.8400 -88.0322 63° Northeast 296 341 7,900 -660 Descending Chicago Center
05:50PM 41.8503 -87.9356 82° East 267 307 7,100 -480 Descending Chicago Center
05:51PM 41.8581 -87.8492 83° East 246 283 7,000 -120 Descending Chicago Center
05:52PM 41.8667 -87.8000 77° East 225 259 7,000  Level Chicago TRACON
05:53PM 41.9167 -87.7833 14° North 234 269 7,000 -120 Level Chicago TRACON
05:54PM 41.9667 -87.7333 37° Northeast 236 272 6,800 -660 Descending Chicago TRACON
05:55PM 42.0167 -87.6833 37° Northeast 222 255 5,700 -1,200 Descending Chicago TRACON
05:56PM 42.0667 -87.6333 37° Northeast 222 255 4,400 -1,080 Descending Chicago TRACON
05:57PM 42.1167 -87.6167 14° North 224 258 3,700 -780 Descending Chicago TRACON
05:58PM 42.1433 -87.6542 314° West 211 243 3,100 -420 Descending Chicago Center
05:59PM 42.1189 -87.7069 238° Southwest 184 212 3,000 -60 Descending Chicago Center
06:00PM 42.0833 -87.7500 222° Southwest 155 178 3,000  Level Chicago TRACON